createdAt,value
2023-03-12T00:02:39.953Z,2.09
2023-03-12T00:07:41.212Z,2.25
2023-03-12T00:12:42.469Z,2.22
2023-03-12T00:17:43.705Z,2.07
2023-03-12T00:22:44.965Z,1.97
2023-03-12T00:27:46.200Z,2.01
2023-03-12T00:32:47.571Z,2.07
2023-03-12T00:37:48.845Z,2.02
2023-03-12T00:42:50.097Z,1.82
2023-03-12T00:47:51.350Z,1.96
2023-03-12T00:52:52.694Z,2.22
2023-03-12T00:57:53.947Z,2.34
2023-03-12T01:02:55.188Z,2.36
2023-03-12T01:07:56.525Z,2.14
2023-03-12T01:12:58.026Z,1.98
2023-03-12T01:17:59.457Z,1.88
2023-03-12T01:23:00.841Z,1.79
2023-03-12T01:28:02.179Z,1.51
2023-03-12T01:33:03.410Z,1.57
2023-03-12T01:38:04.672Z,1.50
2023-03-12T01:43:05.925Z,1.34
2023-03-12T01:48:07.249Z,1.45
2023-03-12T01:53:08.472Z,1.31
2023-03-12T01:58:09.797Z,1.52
2023-03-12T02:03:11.214Z,1.45
2023-03-12T02:08:12.557Z,1.39
2023-03-12T02:13:13.877Z,1.13
2023-03-12T02:18:15.163Z,1.43
2023-03-12T02:23:16.511Z,1.43
2023-03-12T02:28:17.809Z,1.21
2023-03-12T02:33:19.080Z,1.35
2023-03-12T02:38:20.463Z,1.19
2023-03-12T02:43:21.722Z,1.27
2023-03-12T02:48:22.973Z,1.27
2023-03-12T02:53:24.256Z,1.24
2023-03-12T02:58:25.568Z,0.93
2023-03-12T03:03:26.925Z,0.92
2023-03-12T03:08:28.209Z,0.78
2023-03-12T03:13:29.469Z,1.02
2023-03-12T03:18:30.676Z,0.81
2023-03-12T03:23:31.880Z,0.67
2023-03-12T03:28:33.098Z,0.46
2023-03-12T03:33:34.373Z,0.39
2023-03-12T03:38:35.874Z,0.56
2023-03-12T03:43:37.121Z,0.86
2023-03-12T03:48:38.361Z,0.82
2023-03-12T03:53:39.811Z,0.90
2023-03-12T03:58:41.044Z,0.88
2023-03-12T04:03:42.332Z,1.07
2023-03-12T04:08:43.599Z,1.05
2023-03-12T04:13:44.914Z,1.05
2023-03-12T04:18:46.154Z,1.17
2023-03-12T04:23:47.403Z,1.12
2023-03-12T04:28:48.720Z,1.20
2023-03-12T04:33:50.001Z,1.10
2023-03-12T04:38:51.250Z,1.21
2023-03-12T04:43:52.467Z,1.23
2023-03-12T04:48:53.771Z,1.35
2023-03-12T04:53:55.002Z,1.29
2023-03-12T04:58:56.320Z,1.32
2023-03-12T05:03:57.696Z,1.34
2023-03-12T05:08:59.061Z,1.33
2023-03-12T05:14:00.432Z,1.38
2023-03-12T05:19:02.394Z,1.36
2023-03-12T05:24:03.729Z,1.41
2023-03-12T05:29:05.033Z,1.44
2023-03-12T05:34:06.328Z,1.42
2023-03-12T05:39:07.609Z,1.44
2023-03-12T05:44:08.894Z,1.60
2023-03-12T05:49:10.165Z,1.57
2023-03-12T05:54:11.438Z,1.57
2023-03-12T05:59:12.691Z,1.45
2023-03-12T06:04:13.973Z,1.34
2023-03-12T06:09:15.269Z,1.42
2023-03-12T06:14:16.538Z,1.49
2023-03-12T06:19:17.880Z,1.42
2023-03-12T06:24:19.111Z,1.51
2023-03-12T06:29:20.376Z,1.58
2023-03-12T06:34:21.597Z,1.57
2023-03-12T06:39:23.007Z,1.76
2023-03-12T06:44:24.374Z,1.83
2023-03-12T06:49:26.700Z,1.86
2023-03-12T06:54:28.067Z,1.86
2023-03-12T06:59:29.313Z,1.94
2023-03-12T07:04:30.529Z,1.91
2023-03-12T07:09:35.203Z,1.88
2023-03-12T07:14:36.456Z,2.13
2023-03-12T07:19:37.686Z,2.28
2023-03-12T07:24:39.001Z,2.06
2023-03-12T07:29:40.269Z,2.25
2023-03-12T07:34:41.661Z,2.08
2023-03-12T07:39:46.544Z,2.19
2023-03-12T07:44:50.652Z,2.37
2023-03-12T07:49:52.012Z,2.09
2023-03-12T07:54:54.334Z,2.26
2023-03-12T07:59:55.720Z,2.53
2023-03-12T08:04:57.084Z,2.62
2023-03-12T08:09:58.450Z,2.85
2023-03-12T08:14:59.728Z,3.07
2023-03-12T08:20:00.971Z,2.98
2023-03-12T08:25:02.246Z,2.89
2023-03-12T08:30:03.910Z,3.39
2023-03-12T08:35:05.747Z,3.42
2023-03-12T08:40:15.519Z,3.46
2023-03-12T08:45:17.076Z,3.76
2023-03-12T08:50:18.424Z,4.04
2023-03-12T08:55:19.721Z,4.11
2023-03-12T09:00:20.979Z,4.37
2023-03-12T09:05:22.258Z,4.21
2023-03-12T09:10:23.514Z,4.49
2023-03-12T09:15:24.810Z,4.27
2023-03-12T09:20:26.076Z,4.43
2023-03-12T09:25:27.302Z,4.61
2023-03-12T09:30:30.255Z,4.74
2023-03-12T09:35:31.724Z,5.16
2023-03-12T09:40:33.502Z,5.28
2023-03-12T09:45:34.756Z,4.89
2023-03-12T09:50:40.014Z,5.28
2023-03-12T09:55:41.305Z,5.36
2023-03-12T10:00:42.552Z,5.40
2023-03-12T10:05:44.249Z,5.52
2023-03-12T10:10:45.582Z,5.73
2023-03-12T10:15:47.054Z,5.47
2023-03-12T10:20:48.462Z,5.55
2023-03-12T10:25:49.684Z,5.31
2023-03-12T10:30:51.021Z,5.85
2023-03-12T10:35:52.359Z,5.95
2023-03-12T10:40:53.582Z,5.61
2023-03-12T10:45:54.859Z,5.62
2023-03-12T10:50:56.097Z,5.80
2023-03-12T10:55:57.328Z,5.75
2023-03-12T11:00:58.677Z,5.58
2023-03-12T11:05:59.987Z,5.72
2023-03-12T11:11:01.349Z,5.73
2023-03-12T11:16:02.920Z,5.58
2023-03-12T11:21:04.229Z,5.84
2023-03-12T11:26:05.548Z,5.63
2023-03-12T11:31:11.345Z,5.88
2023-03-12T11:36:13.965Z,5.70
2023-03-12T11:41:15.193Z,5.68
2023-03-12T11:46:16.447Z,5.72
2023-03-12T11:51:17.685Z,5.44
2023-03-12T11:56:21.458Z,5.49
2023-03-12T12:01:22.688Z,5.85
2023-03-12T12:06:24.516Z,6.17
2023-03-12T12:11:25.844Z,5.77
2023-03-12T12:16:28.901Z,5.95
2023-03-12T12:21:30.253Z,6.07
2023-03-12T12:26:31.651Z,5.82
2023-03-12T12:31:32.944Z,5.88
2023-03-12T12:36:34.245Z,5.88
2023-03-12T12:41:35.506Z,5.85
2023-03-12T12:46:36.855Z,5.64
2023-03-12T12:51:38.186Z,5.77
2023-03-12T12:56:39.509Z,5.88
2023-03-12T13:01:40.887Z,5.57
2023-03-12T13:06:42.320Z,5.72
2023-03-12T13:11:43.652Z,5.84
2023-03-12T13:16:44.964Z,5.76
2023-03-12T13:21:46.185Z,5.89
2023-03-12T13:26:47.518Z,6.22
2023-03-12T13:31:48.846Z,6.21
2023-03-12T13:36:50.112Z,5.83
2023-03-12T13:41:52.083Z,5.85
2023-03-12T13:46:53.300Z,5.81
2023-03-12T13:51:55.443Z,5.81
2023-03-12T13:56:56.669Z,5.84
2023-03-12T14:01:57.996Z,5.77
2023-03-12T14:06:59.267Z,5.77
2023-03-12T14:12:00.738Z,5.66
2023-03-12T14:17:03.877Z,5.77
2023-03-12T14:22:05.085Z,6.07
2023-03-12T14:27:06.333Z,5.99
2023-03-12T14:32:07.546Z,6.03
2023-03-12T14:37:08.952Z,5.99
2023-03-12T14:42:10.253Z,6.32
2023-03-12T14:47:11.570Z,6.26
2023-03-12T14:52:12.884Z,6.58
2023-03-12T14:57:15.583Z,6.58
2023-03-12T15:02:16.884Z,6.65
2023-03-12T15:07:18.201Z,6.63
2023-03-12T15:12:19.505Z,6.64
2023-03-12T15:17:20.835Z,6.73
2023-03-12T15:22:23.272Z,6.60
2023-03-12T15:27:24.670Z,6.64
2023-03-12T15:32:28.669Z,6.85
2023-03-12T15:37:33.712Z,6.72
2023-03-12T15:42:34.982Z,7.11
2023-03-12T15:47:36.364Z,7.27
2023-03-12T15:52:41.449Z,7.34
2023-03-12T15:57:43.317Z,7.47
2023-03-12T16:02:44.672Z,7.50
2023-03-12T16:07:46.013Z,7.44
2023-03-12T16:12:47.599Z,7.41
2023-03-12T16:17:49.331Z,7.62
2023-03-12T16:22:50.906Z,7.52
2023-03-12T16:27:52.142Z,7.26
2023-03-12T16:32:54.015Z,6.80
2023-03-12T16:37:55.781Z,6.66
2023-03-12T16:43:00.588Z,6.41
2023-03-12T16:48:02.308Z,6.55
2023-03-12T16:53:04.450Z,6.93
2023-03-12T16:58:07.083Z,7.03
2023-03-12T17:03:10.932Z,6.95
2023-03-12T17:08:12.209Z,6.97
2023-03-12T17:13:13.414Z,7.08
2023-03-12T17:18:14.740Z,6.96
2023-03-12T17:23:16.030Z,6.77
2023-03-12T17:28:17.441Z,6.44
2023-03-12T17:33:18.839Z,6.32
2023-03-12T17:38:20.095Z,6.12
2023-03-12T17:43:23.130Z,6.11
2023-03-12T17:48:28.812Z,5.99
2023-03-12T17:53:30.220Z,5.95
2023-03-12T17:58:31.626Z,5.64
2023-03-12T18:03:33.024Z,5.51
2023-03-12T18:08:34.412Z,5.46
2023-03-12T18:13:39.859Z,5.69
2023-03-12T18:18:44.578Z,5.78
2023-03-12T18:23:47.229Z,5.77
2023-03-12T18:28:48.593Z,5.72
2023-03-12T18:33:49.832Z,5.50
2023-03-12T18:38:51.134Z,5.39
2023-03-12T18:43:59.908Z,5.38
2023-03-12T18:49:02.007Z,5.70
2023-03-12T18:54:03.484Z,5.57
2023-03-12T18:59:04.757Z,5.46
2023-03-12T19:04:08.881Z,5.48
2023-03-12T19:09:10.343Z,5.47
2023-03-12T19:14:12.306Z,5.50
2023-03-12T19:19:14.723Z,5.57
2023-03-12T19:24:15.972Z,5.77
2023-03-12T19:29:17.239Z,5.61
2023-03-12T19:34:18.496Z,5.65
2023-03-12T19:39:21.481Z,5.68
2023-03-12T19:44:23.052Z,5.95
2023-03-12T19:49:24.444Z,5.72
2023-03-12T19:54:25.841Z,5.69
2023-03-12T19:59:27.141Z,6.17
2023-03-12T20:04:28.583Z,6.05
2023-03-12T20:09:29.899Z,5.96
2023-03-12T20:14:31.161Z,5.77
2023-03-12T20:19:32.937Z,5.83
2023-03-12T20:24:34.362Z,5.48
2023-03-12T20:29:35.939Z,5.92
2023-03-12T20:34:37.451Z,5.81
2023-03-12T20:39:38.949Z,5.93
2023-03-12T20:44:40.291Z,5.65
2023-03-12T20:49:41.679Z,5.61
2023-03-12T20:54:42.949Z,5.59
2023-03-12T20:59:44.271Z,5.42
2023-03-12T21:04:45.585Z,5.44
2023-03-12T21:09:46.921Z,5.64
2023-03-12T21:14:48.315Z,5.45
2023-03-12T21:19:49.728Z,5.54
2023-03-12T21:24:51.117Z,5.80
2023-03-12T21:29:52.470Z,5.90
2023-03-12T21:34:53.767Z,5.93
2023-03-12T21:40:00.961Z,6.02
2023-03-12T21:45:02.255Z,5.99
2023-03-12T21:50:03.508Z,5.96
2023-03-12T21:55:04.781Z,6.06
2023-03-12T22:00:06.154Z,6.23
2023-03-12T22:05:07.383Z,6.11
2023-03-12T22:10:12.103Z,6.21
2023-03-12T22:15:13.593Z,6.29
2023-03-12T22:20:14.908Z,6.31
2023-03-12T22:25:16.205Z,6.38
2023-03-12T22:30:17.564Z,6.22
2023-03-12T22:35:25.805Z,6.39
2023-03-12T22:40:28.127Z,6.26
2023-03-12T22:45:29.381Z,6.22
2023-03-12T22:50:30.652Z,6.32
2023-03-12T22:55:32.007Z,6.57
2023-03-12T23:00:33.250Z,6.57
2023-03-12T23:05:34.547Z,6.68
2023-03-12T23:10:35.892Z,6.56
2023-03-12T23:15:41.334Z,6.82
2023-03-12T23:20:43.395Z,6.69
2023-03-12T23:25:44.828Z,6.77
2023-03-12T23:30:46.114Z,6.85
2023-03-12T23:35:47.424Z,6.99
2023-03-12T23:40:48.804Z,7.07
2023-03-12T23:45:50.325Z,7.09
2023-03-12T23:50:51.647Z,7.16
2023-03-12T23:55:52.865Z,7.12
